Time;durP1;ratioP1;P1;durP2;ratioP2;P2;SDS_P1;SDS_P2;PMS_P1;PMS_P2;Temp;Humidity;BMP_temperature;BMP_pressure;BME280_temperature;BME280_humidity;BME280_pressure;Samples;Min_cycle;Max_cycle;Signal;HPM_P1;HPM_P2
2023/04/22 00:02:01;;;;;;;;;;;18.50;99.90;;;;;;5076869;28;20008;-67
2023/04/22 00:04:28;;;;;;;;;;;18.50;99.90;;;;;;5076199;28;20518;-68
2023/04/22 00:06:55;;;;;;;;;;;18.40;99.90;;;;;;5079029;28;19914;-67
2023/04/22 00:09:22;;;;;;;;;;;18.50;99.90;;;;;;5079222;28;19909;-67
2023/04/22 00:11:48;;;;;;;;;;;18.50;99.90;;;;;;5074252;28;19912;-67
2023/04/22 00:14:15;;;;;;;;;;;18.40;99.90;;;;;;5075669;28;20094;-65
2023/04/22 00:16:42;;;;;;;;;;;18.40;99.90;;;;;;5074430;28;19933;-64
2023/04/22 00:19:08;;;;;;;;;;;18.50;99.90;;;;;;5075785;28;19958;-65
2023/04/22 00:21:35;;;;;;;;;;;18.40;99.90;;;;;;5073381;28;20368;-64
2023/04/22 00:24:02;;;;;;;;;;;18.40;99.90;;;;;;5074815;28;19977;-68
2023/04/22 00:26:28;;;;;;;;;;;18.40;99.90;;;;;;5075239;28;20371;-64
2023/04/22 00:28:55;;;;;;;;;;;18.50;99.90;;;;;;5074726;28;19969;-68
2023/04/22 00:31:22;;;;;;;;;;;18.50;99.90;;;;;;5073643;28;19920;-67
2023/04/22 00:33:48;;;;;;;;;;;18.60;99.90;;;;;;5071408;28;19919;-67
2023/04/22 00:36:15;;;;;;;;;;;18.80;99.90;;;;;;5073526;28;19916;-69
2023/04/22 00:38:44;;;;;;;;;;;18.90;99.90;;;;;;5071779;28;19924;-67
2023/04/22 00:41:11;;;;;;;;;;;19.10;99.90;;;;;;5074944;28;19920;-65
2023/04/22 00:43:41;;;;;;;;;;;19.20;99.90;;;;;;5073904;28;20206;-66
2023/04/22 00:46:08;;;;;;;;;;;19.40;99.90;;;;;;5075468;28;19912;-66
2023/04/22 00:48:38;;;;;;;;;;;19.40;99.90;;;;;;5076172;28;20513;-69
2023/04/22 00:51:05;;;;;;;;;;;19.60;99.90;;;;;;5076349;28;19912;-65
2023/04/22 00:53:31;;;;;;;;;;;19.70;99.90;;;;;;5076420;28;19961;-68
2023/04/22 00:55:58;;;;;;;;;;;19.80;99.90;;;;;;5076079;28;19908;-63
2023/04/22 00:58:28;;;;;;;;;;;19.90;99.90;;;;;;5076549;28;19908;-65
2023/04/22 01:00:54;;;;;;;;;;;20.10;99.90;;;;;;5074238;28;20424;-67
2023/04/22 01:03:22;;;;;;;;;;;20.30;99.90;;;;;;5074832;28;20318;-66
2023/04/22 01:05:49;;;;;;;;;;;20.40;99.90;;;;;;5074233;28;19927;-66
2023/04/22 01:08:16;;;;;;;;;;;20.60;99.90;;;;;;5074989;28;19908;-65
2023/04/22 01:10:43;;;;;;;;;;;20.80;99.90;;;;;;5073788;28;19920;-65
2023/04/22 01:13:09;;;;;;;;;;;21.00;99.90;;;;;;5075384;28;19920;-66
2023/04/22 01:15:36;;;;;;;;;;;21.20;99.90;;;;;;5076093;28;20342;-65
2023/04/22 01:18:03;;;;;;;;;;;21.30;99.90;;;;;;5076195;28;19954;-66
2023/04/22 01:20:30;;;;;;;;;;;21.40;99.90;;;;;;5075851;28;19924;-69
2023/04/22 01:22:57;;;;;;;;;;;21.50;99.90;;;;;;5074054;28;19958;-67
2023/04/22 01:25:27;;;;;;;;;;;21.50;99.90;;;;;;5075038;28;20431;-66
2023/04/22 01:27:54;;;;;;;;;;;21.60;99.90;;;;;;5072808;28;19912;-65
2023/04/22 01:30:21;;;;;;;;;;;21.60;99.90;;;;;;5076049;28;19991;-66
2023/04/22 01:32:47;;;;;;;;;;;21.60;99.90;;;;;;5074847;28;19915;-66
2023/04/22 01:35:14;;;;;;;;;;;21.60;99.90;;;;;;5079209;28;20682;-66
2023/04/22 01:37:41;;;;;;;;;;;21.70;99.90;;;;;;5079327;28;19908;-65
2023/04/22 01:40:08;;;;;;;;;;;22.00;99.90;;;;;;5079775;28;19946;-68
2023/04/22 01:42:35;;;;;;;;;;;22.10;99.90;;;;;;5061043;28;19923;-65
2023/04/22 01:45:03;;;;;;;;;;;22.20;99.90;;;;;;5078634;28;19912;-65
2023/04/22 01:47:29;;;;;;;;;;;22.20;99.90;;;;;;5079190;28;20199;-65
2023/04/22 01:49:56;;;;;;;;;;;22.30;99.90;;;;;;5079049;28;19908;-65
2023/04/22 01:52:22;;;;;;;;;;;22.20;99.90;;;;;;5079369;28;19912;-68
2023/04/22 01:54:49;;;;;;;;;;;22.00;99.90;;;;;;5078325;28;20414;-66
2023/04/22 01:57:16;;;;;;;;;;;21.90;99.90;;;;;;5079590;28;19908;-68
2023/04/22 01:59:43;;;;;;;;;;;21.80;99.90;;;;;;5079754;28;19915;-67
2023/04/22 02:02:09;;;;;;;;;;;21.80;99.90;;;;;;5079824;28;19920;-66
2023/04/22 02:04:36;;;;;;;;;;;21.70;99.90;;;;;;5078380;28;19912;-65
2023/04/22 02:07:03;;;;;;;;;;;21.70;99.90;;;;;;5078438;28;20749;-66
2023/04/22 02:09:29;;;;;;;;;;;21.60;99.90;;;;;;5079344;28;19930;-65
2023/04/22 02:11:56;;;;;;;;;;;21.50;99.90;;;;;;5078652;28;19961;-66
2023/04/22 02:14:22;;;;;;;;;;;21.40;99.90;;;;;;5079211;28;20370;-64
2023/04/22 02:16:50;;;;;;;;;;;21.40;99.90;;;;;;5078312;28;20342;-67
2023/04/22 02:19:17;;;;;;;;;;;21.30;99.90;;;;;;5079798;28;20306;-67
2023/04/22 02:21:43;;;;;;;;;;;21.20;99.90;;;;;;5078826;28;19941;-69
2023/04/22 02:24:10;;;;;;;;;;;21.20;99.90;;;;;;5079185;28;19966;-65
2023/04/22 02:26:37;;;;;;;;;;;21.20;99.90;;;;;;5078376;28;19908;-66
2023/04/22 02:29:03;;;;;;;;;;;21.20;99.90;;;;;;5078270;28;20288;-66
2023/04/22 02:31:30;;;;;;;;;;;21.10;99.90;;;;;;5078960;28;19908;-69
2023/04/22 02:33:57;;;;;;;;;;;21.20;99.90;;;;;;5077598;28;19947;-66
2023/04/22 02:36:23;;;;;;;;;;;21.10;99.90;;;;;;5079207;28;19912;-67
2023/04/22 02:38:50;;;;;;;;;;;21.10;99.90;;;;;;5078159;28;19916;-68
2023/04/22 02:41:16;;;;;;;;;;;21.00;99.90;;;;;;5079546;28;19916;-68
2023/04/22 02:43:45;;;;;;;;;;;21.00;99.90;;;;;;5078468;28;19912;-66
2023/04/22 02:46:17;;;;;;;;;;;21.00;99.90;;;;;;5076781;28;19953;-66
2023/04/22 02:48:44;;;;;;;;;;;21.00;99.90;;;;;;5078039;28;19912;-66
2023/04/22 02:51:11;;;;;;;;;;;20.90;99.90;;;;;;5077357;28;20272;-68
2023/04/22 02:53:37;;;;;;;;;;;20.90;99.90;;;;;;5077916;28;19919;-68
2023/04/22 02:56:04;;;;;;;;;;;20.80;99.90;;;;;;5077730;28;19953;-67
2023/04/22 02:58:31;;;;;;;;;;;20.80;99.90;;;;;;5078015;28;19912;-65
2023/04/22 03:00:57;;;;;;;;;;;20.70;99.90;;;;;;5077145;28;19927;-67
2023/04/22 03:03:24;;;;;;;;;;;20.70;99.90;;;;;;5078755;28;19918;-69
2023/04/22 03:05:51;;;;;;;;;;;20.70;99.90;;;;;;5078783;28;19908;-67
2023/04/22 03:08:18;;;;;;;;;;;20.70;99.90;;;;;;5078339;28;19942;-65
2023/04/22 03:10:45;;;;;;;;;;;20.70;99.90;;;;;;5075107;28;20268;-67
2023/04/22 03:13:14;;;;;;;;;;;20.70;99.90;;;;;;5076809;28;19908;-69
2023/04/22 03:15:41;;;;;;;;;;;20.70;99.90;;;;;;5077173;28;20319;-68
2023/04/22 03:18:08;;;;;;;;;;;20.80;99.90;;;;;;5076878;28;19914;-66
2023/04/22 03:20:35;;;;;;;;;;;20.70;99.90;;;;;;5077528;28;19916;-65
2023/04/22 03:23:02;;;;;;;;;;;20.70;99.90;;;;;;5076226;28;19954;-67
2023/04/22 03:25:28;;;;;;;;;;;20.70;99.90;;;;;;5078482;28;20007;-65
2023/04/22 03:27:55;;;;;;;;;;;20.70;99.90;;;;;;5077201;28;19951;-68
2023/04/22 03:30:22;;;;;;;;;;;20.70;99.90;;;;;;5077145;28;19940;-63
2023/04/22 03:32:48;;;;;;;;;;;20.70;99.90;;;;;;5078165;28;20448;-66
2023/04/22 03:35:15;;;;;;;;;;;20.60;99.90;;;;;;5074356;28;19916;-68
2023/04/22 03:37:42;;;;;;;;;;;20.70;99.90;;;;;;5077033;28;19913;-65
2023/04/22 03:40:09;;;;;;;;;;;20.80;99.90;;;;;;5075699;28;19942;-66
2023/04/22 03:42:35;;;;;;;;;;;20.80;99.90;;;;;;5077205;28;19969;-66
2023/04/22 03:45:02;;;;;;;;;;;20.90;99.90;;;;;;5077404;28;19916;-66
2023/04/22 03:47:29;;;;;;;;;;;20.90;99.90;;;;;;5077912;28;19908;-67
2023/04/22 03:49:56;;;;;;;;;;;21.00;99.90;;;;;;5077254;28;20369;-66
2023/04/22 03:52:22;;;;;;;;;;;21.10;99.90;;;;;;5076033;28;20457;-65
2023/04/22 03:54:49;;;;;;;;;;;21.20;99.90;;;;;;5077144;28;19995;-63
2023/04/22 03:57:16;;;;;;;;;;;21.40;99.90;;;;;;5075247;28;19908;-67
2023/04/22 03:59:42;;;;;;;;;;;21.50;99.90;;;;;;5077114;28;19915;-65
2023/04/22 04:02:09;;;;;;;;;;;21.50;99.90;;;;;;5075683;28;20292;-69
2023/04/22 04:04:35;;;;;;;;;;;21.50;99.90;;;;;;5077902;28;19908;-68
2023/04/22 04:07:02;;;;;;;;;;;21.50;99.90;;;;;;5077893;28;19917;-67
2023/04/22 04:09:29;;;;;;;;;;;21.50;99.90;;;;;;5076724;28;19993;-65
2023/04/22 04:11:56;;;;;;;;;;;21.40;99.90;;;;;;5076654;28;19915;-67
2023/04/22 04:14:23;;;;;;;;;;;21.30;99.90;;;;;;5073419;28;19912;-65
2023/04/22 04:16:50;;;;;;;;;;;21.20;99.90;;;;;;5076881;28;19927;-66
2023/04/22 04:19:16;;;;;;;;;;;21.10;99.90;;;;;;5075362;28;19908;-64
2023/04/22 04:21:44;;;;;;;;;;;21.10;99.90;;;;;;5076193;28;20364;-67
2023/04/22 04:24:10;;;;;;;;;;;20.90;99.90;;;;;;5075897;28;19915;-66
2023/04/22 04:26:37;;;;;;;;;;;20.90;99.90;;;;;;5076606;28;19912;-67
2023/04/22 04:29:05;;;;;;;;;;;20.80;99.90;;;;;;5077086;28;20357;-66
2023/04/22 04:31:32;;;;;;;;;;;20.70;99.90;;;;;;5076058;28;19924;-65
2023/04/22 04:33:59;;;;;;;;;;;20.70;99.90;;;;;;5076077;28;19991;-66
2023/04/22 04:36:28;;;;;;;;;;;20.60;99.90;;;;;;5074701;28;20007;-67
2023/04/22 04:38:55;;;;;;;;;;;20.70;99.90;;;;;;5056050;28;19956;-67
2023/04/22 04:41:22;;;;;;;;;;;20.60;99.90;;;;;;5054648;28;20297;-66
2023/04/22 04:43:49;;;;;;;;;;;20.60;99.90;;;;;;5061356;28;19908;-65
2023/04/22 04:46:15;;;;;;;;;;;20.50;99.90;;;;;;5074794;28;20013;-64
2023/04/22 04:48:44;;;;;;;;;;;20.40;99.90;;;;;;5076862;28;19919;-67
2023/04/22 04:51:11;;;;;;;;;;;20.50;99.90;;;;;;5076616;28;20298;-67
2023/04/22 04:53:39;;;;;;;;;;;20.50;99.90;;;;;;5076263;28;20375;-65
2023/04/22 04:56:06;;;;;;;;;;;20.50;99.90;;;;;;5076938;28;19915;-66
2023/04/22 04:58:32;;;;;;;;;;;20.50;99.90;;;;;;5074596;28;20520;-65
2023/04/22 05:00:59;;;;;;;;;;;20.40;99.90;;;;;;5075796;28;19916;-64
2023/04/22 05:03:25;;;;;;;;;;;20.40;99.90;;;;;;5075009;28;20285;-63
2023/04/22 05:05:52;;;;;;;;;;;20.40;99.90;;;;;;5075572;28;19920;-67
2023/04/22 05:08:19;;;;;;;;;;;20.40;99.90;;;;;;5074906;28;19947;-67
2023/04/22 05:10:45;;;;;;;;;;;20.30;99.90;;;;;;5080749;28;20011;-66
2023/04/22 05:13:12;;;;;;;;;;;20.30;99.90;;;;;;5081211;28;20361;-65
2023/04/22 05:15:39;;;;;;;;;;;20.30;99.90;;;;;;5080016;28;20227;-67
2023/04/22 05:18:05;;;;;;;;;;;20.20;99.90;;;;;;5079478;28;19993;-65
2023/04/22 05:20:32;;;;;;;;;;;20.30;99.90;;;;;;5060516;28;19982;-66
2023/04/22 05:22:59;;;;;;;;;;;20.20;99.90;;;;;;5079365;28;20356;-67
2023/04/22 05:25:25;;;;;;;;;;;20.20;99.90;;;;;;5081391;28;19942;-65
2023/04/22 05:27:52;;;;;;;;;;;20.20;99.90;;;;;;5076831;28;19908;-65
2023/04/22 05:30:19;;;;;;;;;;;20.20;99.90;;;;;;5081388;28;19908;-66
2023/04/22 05:32:45;;;;;;;;;;;20.10;99.90;;;;;;5077964;28;19912;-66
2023/04/22 05:35:12;;;;;;;;;;;20.10;99.90;;;;;;5080657;28;19962;-64
2023/04/22 05:37:38;;;;;;;;;;;20.10;99.90;;;;;;5079549;28;19908;-66
2023/04/22 05:40:05;;;;;;;;;;;20.00;99.90;;;;;;5078293;28;20592;-66
2023/04/22 05:42:32;;;;;;;;;;;20.00;99.90;;;;;;5080636;28;19912;-67
2023/04/22 05:44:59;;;;;;;;;;;19.90;99.90;;;;;;5077920;28;20102;-65
2023/04/22 05:47:26;;;;;;;;;;;19.90;99.90;;;;;;5080301;28;19908;-65
2023/04/22 05:49:52;;;;;;;;;;;19.90;99.90;;;;;;5078110;28;20261;-67
2023/04/22 05:52:19;;;;;;;;;;;19.90;99.90;;;;;;5080420;28;19934;-67
2023/04/22 05:54:45;;;;;;;;;;;19.80;99.90;;;;;;5079380;28;19908;-68
2023/04/22 05:57:12;;;;;;;;;;;19.80;99.90;;;;;;5077836;28;20273;-67
2023/04/22 05:59:39;;;;;;;;;;;19.80;99.90;;;;;;5079709;28;19937;-68
2023/04/22 06:02:06;;;;;;;;;;;19.70;99.90;;;;;;5077774;28;20372;-69
2023/04/22 06:04:32;;;;;;;;;;;19.70;99.90;;;;;;5079739;28;19947;-66
2023/04/22 06:06:59;;;;;;;;;;;19.70;99.90;;;;;;5077167;28;20552;-69
2023/04/22 06:09:26;;;;;;;;;;;19.70;99.90;;;;;;5079717;28;19919;-70
2023/04/22 06:11:52;;;;;;;;;;;19.70;99.90;;;;;;5078101;28;20261;-69
2023/04/22 06:14:19;;;;;;;;;;;19.60;99.90;;;;;;5079793;28;19908;-67
2023/04/22 06:16:45;;;;;;;;;;;19.60;99.90;;;;;;5078441;28;19916;-66
2023/04/22 06:19:12;;;;;;;;;;;19.60;99.90;;;;;;5078282;28;20282;-68
2023/04/22 06:21:40;;;;;;;;;;;19.50;99.90;;;;;;5078574;28;19993;-70
2023/04/22 06:24:09;;;;;;;;;;;19.50;99.90;;;;;;5076923;28;19965;-67
2023/04/22 06:26:36;;;;;;;;;;;19.60;99.90;;;;;;5079023;28;19919;-67
2023/04/22 06:29:04;;;;;;;;;;;19.50;99.90;;;;;;5076341;28;19973;-68
2023/04/22 06:31:33;;;;;;;;;;;19.50;99.90;;;;;;5079334;28;19913;-68
2023/04/22 06:34:00;;;;;;;;;;;19.50;99.90;;;;;;5077492;28;19920;-69
2023/04/22 06:36:27;;;;;;;;;;;19.50;99.90;;;;;;5079345;28;19908;-69
2023/04/22 06:38:53;;;;;;;;;;;19.50;99.90;;;;;;5079382;28;19908;-67
2023/04/22 06:41:21;;;;;;;;;;;19.50;99.90;;;;;;5078357;28;19916;-67
2023/04/22 06:43:51;;;;;;;;;;;19.50;99.90;;;;;;5078718;28;19915;-68
2023/04/22 06:46:17;;;;;;;;;;;19.40;99.90;;;;;;5076604;28;20215;-69
2023/04/22 06:48:45;;;;;;;;;;;19.40;99.90;;;;;;5079195;28;19912;-67
2023/04/22 06:51:12;;;;;;;;;;;19.40;99.90;;;;;;5076699;28;20372;-66
2023/04/22 06:53:38;;;;;;;;;;;19.40;99.90;;;;;;5079330;28;19933;-66
2023/04/22 06:56:05;;;;;;;;;;;19.40;99.90;;;;;;5076785;28;19927;-69
2023/04/22 06:58:32;;;;;;;;;;;19.40;99.90;;;;;;5080445;28;19908;-67
2023/04/22 07:00:58;;;;;;;;;;;19.30;99.90;;;;;;5078609;28;20613;-69
2023/04/22 07:03:26;;;;;;;;;;;19.30;99.90;;;;;;5078703;28;20521;-67
2023/04/22 07:05:54;;;;;;;;;;;19.30;99.90;;;;;;5079768;28;19908;-69
2023/04/22 07:08:20;;;;;;;;;;;19.30;99.90;;;;;;5076788;28;20021;-66
2023/04/22 07:10:47;;;;;;;;;;;19.30;99.90;;;;;;5079843;28;20365;-67
2023/04/22 07:13:14;;;;;;;;;;;19.20;99.90;;;;;;5076221;28;19908;-67
2023/04/22 07:15:40;;;;;;;;;;;19.20;99.90;;;;;;5080552;28;19977;-66
2023/04/22 07:18:07;;;;;;;;;;;19.20;99.90;;;;;;5078349;28;19908;-67
2023/04/22 07:20:33;;;;;;;;;;;19.20;99.90;;;;;;5078170;28;19916;-66
2023/04/22 07:23:00;;;;;;;;;;;19.20;99.90;;;;;;5080993;28;19916;-66
2023/04/22 07:25:27;;;;;;;;;;;19.20;99.90;;;;;;5057927;28;19912;-68
2023/04/22 07:27:54;;;;;;;;;;;19.20;99.90;;;;;;5080402;28;19912;-66
2023/04/22 07:30:22;;;;;;;;;;;19.20;99.90;;;;;;5078503;28;19916;-68
2023/04/22 07:32:48;;;;;;;;;;;19.20;99.90;;;;;;5076441;28;19916;-67
2023/04/22 07:35:15;;;;;;;;;;;19.10;99.90;;;;;;5081996;28;19916;-67
2023/04/22 07:37:42;;;;;;;;;;;19.10;99.90;;;;;;5074596;28;20601;-69
2023/04/22 07:40:10;;;;;;;;;;;19.10;99.90;;;;;;5078524;28;19959;-69
2023/04/22 07:42:40;;;;;;;;;;;19.10;99.90;;;;;;5076557;28;19973;-69
2023/04/22 07:45:07;;;;;;;;;;;19.10;99.90;;;;;;5078030;28;19916;-67
2023/04/22 07:47:34;;;;;;;;;;;19.10;99.90;;;;;;5076774;28;20008;-69
2023/04/22 07:50:00;;;;;;;;;;;19.10;99.90;;;;;;5077212;28;19908;-67
2023/04/22 07:52:28;;;;;;;;;;;19.10;99.90;;;;;;5076258;28;19912;-70
2023/04/22 07:54:55;;;;;;;;;;;19.10;99.90;;;;;;5076728;28;19934;-67
2023/04/22 07:57:22;;;;;;;;;;;19.10;99.90;;;;;;5078118;28;19947;-69
2023/04/22 07:59:49;;;;;;;;;;;19.00;99.90;;;;;;5075810;28;19998;-69
2023/04/22 08:02:16;;;;;;;;;;;19.00;99.90;;;;;;5076755;28;20398;-68
2023/04/22 08:04:42;;;;;;;;;;;19.00;99.90;;;;;;5075050;28;20218;-70
2023/04/22 08:07:09;;;;;;;;;;;19.00;99.90;;;;;;5077510;28;19973;-70
2023/04/22 08:09:36;;;;;;;;;;;18.90;99.90;;;;;;5076214;28;19915;-68
2023/04/22 08:12:03;;;;;;;;;;;19.00;99.90;;;;;;5076349;28;19915;-69
2023/04/22 08:14:29;;;;;;;;;;;18.90;99.90;;;;;;5076461;28;20034;-67
2023/04/22 08:16:56;;;;;;;;;;;18.90;99.90;;;;;;5076318;28;19908;-68
2023/04/22 08:19:22;;;;;;;;;;;18.90;99.90;;;;;;5077126;28;19970;-65
2023/04/22 08:21:50;;;;;;;;;;;18.90;99.90;;;;;;5074731;28;20345;-69
2023/04/22 08:24:17;;;;;;;;;;;18.80;99.90;;;;;;5076919;28;19915;-68
2023/04/22 08:26:43;;;;;;;;;;;18.90;99.90;;;;;;5075357;28;19919;-67
2023/04/22 08:29:10;;;;;;;;;;;18.90;99.90;;;;;;5076751;28;19908;-68
2023/04/22 08:31:37;;;;;;;;;;;18.90;99.90;;;;;;5075305;28;19915;-68
2023/04/22 08:34:03;;;;;;;;;;;18.90;99.90;;;;;;5075764;28;19921;-68
2023/04/22 08:36:30;;;;;;;;;;;18.90;99.90;;;;;;5076685;28;19912;-67
2023/04/22 08:38:57;;;;;;;;;;;18.90;99.90;;;;;;5075693;28;19912;-67
2023/04/22 08:41:24;;;;;;;;;;;18.90;99.90;;;;;;5076684;28;19928;-68
2023/04/22 08:43:54;;;;;;;;;;;18.90;99.90;;;;;;5074627;28;19918;-68
2023/04/22 08:46:22;;;;;;;;;;;18.80;99.90;;;;;;5072560;28;20446;-67
2023/04/22 08:48:50;;;;;;;;;;;18.90;99.90;;;;;;5075741;28;19957;-68
2023/04/22 08:51:17;;;;;;;;;;;18.80;99.90;;;;;;5077810;28;20399;-68
2023/04/22 08:53:44;;;;;;;;;;;18.80;99.90;;;;;;5076656;28;19951;-67
2023/04/22 08:56:13;;;;;;;;;;;18.80;99.90;;;;;;5075756;28;20268;-68
2023/04/22 08:58:41;;;;;;;;;;;18.80;99.90;;;;;;5075647;28;19973;-71
2023/04/22 09:01:08;;;;;;;;;;;18.80;99.90;;;;;;5074884;28;19959;-70
2023/04/22 09:03:36;;;;;;;;;;;18.80;99.90;;;;;;5076418;28;19915;-69
2023/04/22 09:06:03;;;;;;;;;;;18.80;99.90;;;;;;5074915;28;19909;-67
2023/04/22 09:08:33;;;;;;;;;;;18.80;99.90;;;;;;5076547;28;19923;-67
2023/04/22 09:11:00;;;;;;;;;;;18.80;99.90;;;;;;5074401;28;19959;-69
2023/04/22 09:13:26;;;;;;;;;;;18.80;99.90;;;;;;5076314;28;19915;-68
2023/04/22 09:15:53;;;;;;;;;;;18.80;99.90;;;;;;5074972;28;19916;-70
2023/04/22 09:18:20;;;;;;;;;;;18.80;99.90;;;;;;5075958;28;19912;-68
2023/04/22 09:20:47;;;;;;;;;;;18.70;99.90;;;;;;5075691;28;20011;-67
2023/04/22 09:23:14;;;;;;;;;;;18.70;99.90;;;;;;5074725;28;19955;-70
2023/04/22 09:25:41;;;;;;;;;;;18.70;99.90;;;;;;5075726;28;19912;-70
2023/04/22 09:28:11;;;;;;;;;;;18.70;99.90;;;;;;5074700;28;19989;-69
2023/04/22 09:30:37;;;;;;;;;;;18.70;99.90;;;;;;5076201;28;19915;-69
2023/04/22 09:33:05;;;;;;;;;;;18.60;99.90;;;;;;5074208;28;19923;-67
2023/04/22 09:35:32;;;;;;;;;;;18.60;99.90;;;;;;5075997;28;19916;-69
2023/04/22 09:37:59;;;;;;;;;;;18.60;99.90;;;;;;5075141;28;19951;-71
2023/04/22 09:40:27;;;;;;;;;;;18.70;99.90;;;;;;5075257;28;19920;-68
2023/04/22 09:42:55;;;;;;;;;;;18.60;99.90;;;;;;5074035;28;20011;-68
2023/04/22 09:45:29;;;;;;;;;;;18.60;99.90;;;;;;5074521;28;19915;-67
2023/04/22 09:47:56;;;;;;;;;;;18.70;99.90;;;;;;5075294;28;19991;-69
2023/04/22 09:50:26;;;;;;;;;;;18.60;99.90;;;;;;5074777;28;19961;-69
2023/04/22 09:52:54;;;;;;;;;;;18.70;99.90;;;;;;5075395;28;20097;-69
2023/04/22 09:55:22;;;;;;;;;;;18.60;99.90;;;;;;5076567;28;19981;-69
2023/04/22 09:57:53;;;;;;;;;;;18.60;99.90;;;;;;5077946;28;20398;-70
2023/04/22 10:00:20;;;;;;;;;;;18.60;99.90;;;;;;5077147;28;20439;-70
2023/04/22 10:02:47;;;;;;;;;;;18.60;99.90;;;;;;5079713;28;19912;-68
2023/04/22 10:05:14;;;;;;;;;;;18.50;99.90;;;;;;5077882;28;20011;-67
2023/04/22 10:07:42;;;;;;;;;;;18.60;99.90;;;;;;5080314;28;19969;-68
2023/04/22 10:10:09;;;;;;;;;;;18.60;99.90;;;;;;5077121;28;19954;-68
2023/04/22 10:12:36;;;;;;;;;;;18.50;99.90;;;;;;5079437;28;19908;-68
2023/04/22 10:15:03;;;;;;;;;;;18.50;99.90;;;;;;5079117;28;19908;-69
2023/04/22 10:17:31;;;;;;;;;;;18.50;99.90;;;;;;5079419;28;19916;-68
2023/04/22 10:20:02;;;;;;;;;;;18.50;99.90;;;;;;5079244;28;19908;-68
2023/04/22 10:22:29;;;;;;;;;;;18.50;99.90;;;;;;5078203;28;19954;-68
2023/04/22 10:24:57;;;;;;;;;;;18.60;99.90;;;;;;5077890;28;20384;-69
2023/04/22 10:27:23;;;;;;;;;;;18.50;99.90;;;;;;5075634;28;19912;-69
2023/04/22 10:29:50;;;;;;;;;;;18.60;99.90;;;;;;5077837;28;19999;-68
2023/04/22 10:32:16;;;;;;;;;;;18.50;99.90;;;;;;5076209;28;19912;-70
2023/04/22 10:34:46;;;;;;;;;;;18.50;99.90;;;;;;5078116;28;19912;-67
2023/04/22 10:37:14;;;;;;;;;;;18.60;99.90;;;;;;5073452;28;19908;-68
2023/04/22 10:39:41;;;;;;;;;;;18.50;99.90;;;;;;5077822;28;19924;-68
2023/04/22 10:42:11;;;;;;;;;;;18.40;99.90;;;;;;5076227;28;19920;-69
2023/04/22 10:44:59;;;;;;;;;;;18.50;99.90;;;;;;5078235;28;19908;-70
2023/04/22 10:47:35;;;;;;;;;;;18.50;99.90;;;;;;5076168;28;19904;-68
2023/04/22 10:50:17;;;;;;;;;;;18.40;99.90;;;;;;5078461;28;20322;-68
2023/04/22 10:53:03;;;;;;;;;;;18.50;99.90;;;;;;5077524;28;19919;-69
2023/04/22 10:55:51;;;;;;;;;;;18.50;99.90;;;;;;5075823;28;20100;-69
2023/04/22 10:58:22;;;;;;;;;;;18.50;99.90;;;;;;5072745;28;20361;-68
2023/04/22 11:00:56;;;;;;;;;;;18.50;99.90;;;;;;5077461;28;20418;-67
2023/04/22 11:03:28;;;;;;;;;;;18.50;99.90;;;;;;5077813;28;19916;-70
2023/04/22 11:06:16;;;;;;;;;;;18.50;99.90;;;;;;5075635;28;20249;-70
2023/04/22 11:08:46;;;;;;;;;;;18.50;99.90;;;;;;5074713;28;20300;-70
2023/04/22 11:11:13;;;;;;;;;;;18.50;99.90;;;;;;5077370;28;19916;-69
2023/04/22 11:13:43;;;;;;;;;;;18.50;99.90;;;;;;5075123;28;19922;-70
2023/04/22 11:16:09;;;;;;;;;;;18.50;99.90;;;;;;5077058;28;19912;-69
2023/04/22 11:18:37;;;;;;;;;;;18.50;99.90;;;;;;5075706;28;19908;-69
2023/04/22 11:21:08;;;;;;;;;;;18.60;99.90;;;;;;5076392;28;19916;-69
2023/04/22 11:23:35;;;;;;;;;;;18.50;99.90;;;;;;5077504;28;20330;-69
2023/04/22 11:26:03;;;;;;;;;;;18.60;99.90;;;;;;5074355;28;20014;-70
2023/04/22 11:28:30;;;;;;;;;;;18.50;99.90;;;;;;5078109;28;19919;-70
2023/04/22 11:31:05;;;;;;;;;;;18.50;99.90;;;;;;5073607;28;19966;-67
2023/04/22 11:33:37;;;;;;;;;;;18.50;99.90;;;;;;5075799;28;19908;-67
2023/04/22 11:36:04;;;;;;;;;;;18.40;99.90;;;;;;5073958;28;20586;-68
2023/04/22 11:38:31;;;;;;;;;;;18.50;99.90;;;;;;5077208;28;19909;-71
2023/04/22 11:40:58;;;;;;;;;;;18.40;99.90;;;;;;5074675;28;20384;-70
2023/04/22 11:43:25;;;;;;;;;;;18.50;99.90;;;;;;5074212;28;19912;-69
2023/04/22 11:45:54;;;;;;;;;;;18.30;99.90;;;;;;5073135;28;20000;-69
2023/04/22 11:48:21;;;;;;;;;;;18.30;99.90;;;;;;5076572;28;19912;-70
2023/04/22 11:50:48;;;;;;;;;;;18.20;99.90;;;;;;5076539;28;19908;-68
2023/04/22 11:53:24;;;;;;;;;;;18.20;99.90;;;;;;5076833;28;19908;-70
2023/04/22 11:55:51;;;;;;;;;;;18.10;99.90;;;;;;5076454;28;19912;-69
2023/04/22 11:58:19;;;;;;;;;;;18.00;99.90;;;;;;5076317;28;19912;-66
2023/04/22 12:00:47;;;;;;;;;;;18.00;99.90;;;;;;5075753;28;19998;-68
2023/04/22 12:03:14;;;;;;;;;;;18.00;99.90;;;;;;5074191;28;19922;-68
2023/04/22 12:05:42;;;;;;;;;;;17.90;99.90;;;;;;5076486;28;19908;-68
2023/04/22 12:08:13;;;;;;;;;;;17.90;99.90;;;;;;5075243;28;19944;-68
2023/04/22 12:10:41;;;;;;;;;;;17.80;99.90;;;;;;5077018;28;19916;-69
2023/04/22 12:13:08;;;;;;;;;;;17.80;99.90;;;;;;5075360;28;19908;-68
2023/04/22 12:15:43;;;;;;;;;;;17.70;99.90;;;;;;5078239;28;20314;-68
2023/04/22 12:18:11;;;;;;;;;;;17.80;99.90;;;;;;5073731;28;19912;-69
2023/04/22 12:20:41;;;;;;;;;;;17.70;99.90;;;;;;5076904;28;19950;-69
2023/04/22 12:23:12;;;;;;;;;;;17.70;99.90;;;;;;5075323;28;19938;-70
2023/04/22 12:25:39;;;;;;;;;;;17.80;99.90;;;;;;5077691;28;19961;-70
2023/04/22 12:28:05;;;;;;;;;;;17.80;99.90;;;;;;5075157;28;19961;-69
2023/04/22 12:30:32;;;;;;;;;;;17.80;99.90;;;;;;5077145;28;19920;-68
2023/04/22 12:32:59;;;;;;;;;;;17.80;99.90;;;;;;5073885;28;19913;-68
2023/04/22 12:35:26;;;;;;;;;;;17.90;99.90;;;;;;5076580;28;20214;-68
2023/04/22 12:37:52;;;;;;;;;;;17.80;99.90;;;;;;5059064;28;19948;-67
2023/04/22 12:40:19;;;;;;;;;;;17.90;99.90;;;;;;5075197;28;20334;-65
2023/04/22 12:42:46;;;;;;;;;;;17.90;99.90;;;;;;5076361;28;19913;-69
2023/04/22 12:45:12;;;;;;;;;;;17.90;99.90;;;;;;5073989;28;19912;-68
2023/04/22 12:47:39;;;;;;;;;;;17.90;99.90;;;;;;5076183;28;20379;-67
2023/04/22 12:50:06;;;;;;;;;;;17.90;99.90;;;;;;5072273;28;19912;-70
2023/04/22 12:52:33;;;;;;;;;;;17.90;99.90;;;;;;5076468;28;20619;-70
2023/04/22 12:55:00;;;;;;;;;;;17.90;99.90;;;;;;5075290;28;19912;-70
2023/04/22 12:57:27;;;;;;;;;;;17.90;99.90;;;;;;5076410;28;19913;-69
2023/04/22 12:59:54;;;;;;;;;;;18.00;99.90;;;;;;5076414;28;19908;-69
2023/04/22 13:02:21;;;;;;;;;;;18.00;99.90;;;;;;5074799;28;19920;-68
2023/04/22 13:04:47;;;;;;;;;;;17.90;99.90;;;;;;5076773;28;19935;-67
2023/04/22 13:07:16;;;;;;;;;;;17.90;99.90;;;;;;5074787;28;19952;-69
2023/04/22 13:09:43;;;;;;;;;;;17.90;99.90;;;;;;5077108;28;19965;-67
2023/04/22 13:12:09;;;;;;;;;;;17.90;99.90;;;;;;5075037;28;19923;-67
2023/04/22 13:14:36;;;;;;;;;;;17.90;99.90;;;;;;5076081;28;19908;-69
2023/04/22 13:17:03;;;;;;;;;;;17.80;99.90;;;;;;5075718;28;20006;-70
2023/04/22 13:19:30;;;;;;;;;;;17.80;99.90;;;;;;5075654;28;19998;-68
2023/04/22 13:21:57;;;;;;;;;;;17.80;99.90;;;;;;5076785;28;19920;-67
2023/04/22 13:24:23;;;;;;;;;;;17.70;99.90;;;;;;5074217;28;19956;-67
2023/04/22 13:26:50;;;;;;;;;;;17.70;99.90;;;;;;5076691;28;20463;-67
2023/04/22 13:29:17;;;;;;;;;;;17.70;99.90;;;;;;5075584;28;20261;-67
2023/04/22 13:31:44;;;;;;;;;;;17.70;99.90;;;;;;5080552;28;19912;-67
2023/04/22 13:34:11;;;;;;;;;;;17.80;99.90;;;;;;5079435;28;19923;-67
2023/04/22 13:36:37;;;;;;;;;;;17.70;99.90;;;;;;5079116;28;20392;-67
2023/04/22 13:39:05;;;;;;;;;;;17.70;99.90;;;;;;5080202;28;19951;-67
2023/04/22 13:41:31;;;;;;;;;;;17.70;99.90;;;;;;5078433;28;20283;-68
2023/04/22 13:43:58;;;;;;;;;;;17.70;99.90;;;;;;5080084;28;19920;-68
2023/04/22 13:46:26;;;;;;;;;;;17.60;99.90;;;;;;5078454;28;19909;-69
2023/04/22 13:48:53;;;;;;;;;;;17.60;99.90;;;;;;5080009;28;19914;-69
2023/04/22 13:51:20;;;;;;;;;;;17.60;99.90;;;;;;5079902;28;19912;-70
2023/04/22 13:53:46;;;;;;;;;;;17.60;99.90;;;;;;5077547;28;19938;-68
2023/04/22 13:56:14;;;;;;;;;;;17.60;99.90;;;;;;5079803;28;19912;-69
2023/04/22 13:58:42;;;;;;;;;;;17.50;99.90;;;;;;5077653;28;19937;-68
2023/04/22 14:01:08;;;;;;;;;;;17.60;99.90;;;;;;5080062;28;20357;-68
2023/04/22 14:03:35;;;;;;;;;;;17.50;99.90;;;;;;5077615;28;19938;-69
2023/04/22 14:06:02;;;;;;;;;;;17.50;99.90;;;;;;5061683;28;19908;-68
2023/04/22 14:08:29;;;;;;;;;;;17.50;99.90;;;;;;5077372;28;19908;-69
2023/04/22 14:10:58;;;;;;;;;;;17.50;99.90;;;;;;5079802;28;19961;-68
2023/04/22 14:13:25;;;;;;;;;;;17.40;99.90;;;;;;5079768;28;19909;-70
2023/04/22 14:15:52;;;;;;;;;;;17.40;99.90;;;;;;5079581;28;19912;-68
2023/04/22 14:18:20;;;;;;;;;;;17.40;99.90;;;;;;5079367;28;19908;-67